Flight Track Log - Related Links

Times and Time Zones

All times are in EDT time to prevent confusion due to time zone crossing. See the DAL268 flight status page for this flight to view local times or setup timezone preferences in your user account.

Time Position Orientation Groundspeed Altitude Reporting Facility
EDT Latitude Longitude Course Direction KTS MPH feet Rate Location/Type
Thu 06:42:56 PM 33.6286 -84.4953 64° Northeast 442 509 2,900  Level Atlanta Center
Thu 06:43:17 PM 33.6167 -84.5167 236° Southwest 208 239 3,400 1,704 Climbing Atlanta TRACON
Thu 06:44:17 PM 33.5833 -84.5833 239° Southwest 270 311 5,200 2,050 Climbing Atlanta TRACON
Thu 06:45:00 PM 33.7104 -83.9956 101° East  Level FlightAware Approximate
Thu 06:45:17 PM 33.5000 -84.5833 180° South 286 329 7,500  Level Atlanta TRACON
Thu 06:46:00 PM 33.6868 -83.8534 101° East  Level FlightAware Approximate
Thu 06:46:56 PM 33.4492 -84.4572 116° Southeast 292 336 10,300  Level Atlanta Center
Thu 06:47:00 PM 33.6630 -83.7113 101° East  Level FlightAware Approximate
Thu 06:47:56 PM 33.4578 -84.3400 85° East 328 377 11,300  Level Atlanta Center
Thu 06:48:00 PM 33.6740 -83.5746 64° Northeast  Level FlightAware Approximate
Thu 06:48:56 PM 33.4914 -84.2181 72° East 385 443 13,100  Level Atlanta Center
Thu 06:49:56 PM 33.5292 -84.0861 71° East 396 456 14,500 1,600 Climbing Atlanta Center
Thu 06:50:56 PM 33.5689 -83.9492 71° East 422 486 16,300 1,750 Climbing Atlanta Center
Thu 06:51:56 PM 33.6125 -83.8069 70° East 444 511 18,000 1,600 Climbing Atlanta Center
Thu 06:52:56 PM 33.6539 -83.6644 71° East 449 517 19,500 1,500 Climbing Atlanta Center
Thu 06:53:56 PM 33.7075 -83.5194 66° East 454 522 21,000 1,350 Climbing Atlanta Center
Thu 06:54:56 PM 33.7653 -83.3767 64° Northeast 464 534 22,200 1,200 Climbing Atlanta Center
Thu 06:55:56 PM 33.8292 -83.2186 64° Northeast 464 534 23,400 1,100 Climbing Atlanta Center
Thu 06:56:56 PM 33.8906 -83.0703 63° Northeast 474 545 24,400 1,200 Climbing Atlanta Center
Thu 06:57:56 PM 33.9478 -82.9194 65° Northeast 483 556 25,800 1,250 Climbing Atlanta Center
Thu 06:58:56 PM 34.0089 -82.7708 64° Northeast 491 565 26,900 1,150 Climbing Atlanta Center
Thu 06:59:56 PM 34.0678 -82.6219 64° Northeast 485 558 28,100 950 Climbing Atlanta Center
Thu 07:00:56 PM 34.1267 -82.4753 64° Northeast 485 558 28,800 950 Climbing Atlanta Center
Thu 07:01:56 PM 34.1769 -82.3439 65° Northeast 485 558 30,000 1,100 Climbing Atlanta Center
Thu 07:02:56 PM 34.2333 -82.1994 65° Northeast 485 558 31,000 500 Climbing Atlanta Center
Thu 07:03:56 PM 34.2958 -82.0600 61° Northeast 480 552 31,000  Level Atlanta Center
Thu 07:04:56 PM 34.3583 -81.9250 61° Northeast 470 541 31,000  Level Atlanta Center
Thu 07:05:56 PM 34.4036 -81.7781 69° East 456 525 31,000  Level Atlanta Center
Thu 07:06:56 PM 34.4489 -81.6306 70° East 456 525 31,000  Level Atlanta Center
Thu 07:07:56 PM 34.4939 -81.4806 70° East 461 531 31,000  Level Atlanta Center
Thu 07:08:56 PM 34.5367 -81.3306 71° East 466 536 31,000  Level Atlanta Center
Thu 07:09:56 PM 34.5856 -81.1853 68° East 471 542 31,000  Level Atlanta Center
Thu 07:10:56 PM 34.6361 -81.0319 55° Northeast 477 549 31,000  Level Atlanta Center
Thu 07:11:00 PM 34.6567 -81.0639 55° Northeast  Level FlightAware Approximate
Thu 07:11:56 PM 34.7117 -80.8803 59° Northeast 467 537 31,000  Level Atlanta Center
Thu 07:12:56 PM 34.7872 -80.7458 56° Northeast 485 558 31,000  Level Atlanta Center
Thu 07:13:56 PM 34.8650 -80.6086 55° Northeast 495 570 31,000  Level Atlanta Center
Thu 07:14:56 PM 34.9403 -80.4736 56° Northeast 495 570 31,000  Level Atlanta Center
Thu 07:16:00 PM 34.9758 -80.3266 74° East  Level FlightAware Approximate
Thu 07:17:50 PM 35.1644 -80.0739 65° Northeast 504 580 31,000  Level Washington Center
Thu 07:18:48 PM 35.2336 -79.9531 55° Northeast 490 564 31,000  Level Washington Center
Thu 07:19:49 PM 35.3117 -79.8147 55° Northeast 490 564 31,000  Level Washington Center
Thu 07:20:48 PM 35.3853 -79.6786 56° Northeast 485 558 31,000  Level Washington Center
Thu 07:21:48 PM 35.4608 -79.5394 56° Northeast 485 558 31,000  Level Washington Center
Thu 07:22:49 PM 35.5431 -79.3878 56° Northeast 485 558 31,000  Level Washington Center
Thu 07:23:00 PM 35.3044 -79.3986 65° Northeast  Level FlightAware Approximate
Thu 07:23:49 PM 35.5889 -79.2497 68° East 485 558 31,000  Level Washington Center
Thu 07:24:50 PM 35.6292 -79.0956 72° East 480 552 31,000  Level Washington Center
Thu 07:25:48 PM 35.6711 -78.9414 71° East 475 547 31,000  Level Washington Center
Thu 07:26:49 PM 35.7133 -78.7692 73° East 475 547 31,000  Level Washington Center
Thu 07:27:50 PM 35.7528 -78.6197 72° East 475 547 31,000  Level Washington Center
Thu 07:28:50 PM 35.7897 -78.4650 74° East 470 541 31,000  Level Washington Center
Thu 07:29:52 PM 35.8289 -78.3128 72° East 470 541 31,000  Level Washington Center
Thu 07:30:48 PM 35.8656 -78.1603 73° East 470 541 31,000  Level Washington Center
Thu 07:31:48 PM 35.9022 -78.0100 73° East 464 534 31,000  Level Washington Center
Thu 07:32:49 PM 35.9386 -77.8597 73° East 453 521 31,000  Level Washington Center
Thu 07:33:49 PM 35.9808 -77.7097 71° East 453 521 31,000  Level Washington Center
Thu 07:34:51 PM 36.0542 -77.5756 56° Northeast 458 527 31,000  Level Washington Center
Thu 07:35:48 PM 36.1397 -77.4439 51° Northeast 470 541 31,000  Level Washington Center
Thu 07:36:49 PM 36.2081 -77.3322 53° Northeast 470 541 31,000  Level Washington Center
Thu 07:37:49 PM 36.2850 -77.2000 54° Northeast 470 541 31,000  Level Washington Center
Thu 07:38:50 PM 36.3744 -77.0572 52° Northeast 470 541 31,000  Level Washington Center
Thu 07:39:50 PM 36.4447 -76.9422 53° Northeast 475 547 31,000  Level Washington Center
Thu 07:40:48 PM 36.5339 -76.7967 53° Northeast 475 547 31,000 -50 Level Washington Center
Thu 07:41:49 PM 36.6122 -76.6658 53° Northeast 475 547 30,900 -49 Descending Washington Center
Thu 07:42:50 PM 36.6928 -76.5347 53° Northeast 470 541 30,900 50 Level Washington Center
Thu 07:43:50 PM 36.7272 -76.3772 75° East 470 541 31,000 51 Climbing Washington Center
Thu 07:44:48 PM 36.7594 -76.2142 76° East 465 535 31,000 50 Level Washington Center
Thu 07:45:49 PM 36.8289 -76.0772 58° Northeast 465 535 31,100 246 Climbing Washington Center
Thu 07:46:50 PM 36.9503 -75.9972 28° Northeast 452 520 31,500 303 Climbing Washington Center
Thu 07:47:48 PM 37.0714 -75.9433 20° North 472 543 31,700 303 Climbing Washington Center
Thu 07:48:49 PM 37.2008 -75.8814 21° North 478 550 32,100 541 Climbing Washington Center
Thu 07:49:50 PM 37.3325 -75.8192 21° North 491 565 32,800 446 Climbing Washington Center
Thu 07:50:50 PM 37.4619 -75.7567 21° North 491 565 33,000 102 Climbing Washington Center
Thu 07:51:48 PM 37.5933 -75.6967 20° North 496 571 33,000  Level Washington Center
Thu 07:52:49 PM 37.7247 -75.6339 21° North 496 571 33,000  Level Washington Center
Thu 07:53:51 PM 37.8583 -75.5681 21° North 501 577 33,000 -50 Level Washington Center
Thu 07:54:48 PM 37.9917 -75.5047 21° North 506 582 32,900  Descending Washington Center
Thu 07:55:49 PM 38.1189 -75.4308 25° Northeast 506 582 33,000 49 Climbing Washington Center
Thu 07:56:50 PM 38.2439 -75.3539 26° Northeast 506 582 33,000  Level Washington Center
Thu 07:57:50 PM 38.3708 -75.2686 28° Northeast 506 582 33,000  Level Washington Center
Thu 07:58:48 PM 38.4978 -75.1858 27° Northeast 506 582 33,000  Level Washington Center
Thu 07:59:50 PM 38.6244 -75.1053 26° Northeast 506 582 33,000  Level Washington Center
Thu 08:00:50 PM 38.7533 -75.0219 27° Northeast 506 582 33,000  Level Washington Center
Thu 08:01:48 PM 38.8844 -74.9408 26° Northeast 511 588 33,000 -958 Level Washington Center
Thu 08:02:49 PM 39.0069 -74.8569 28° Northeast 506 582 31,100 -2,488 Descending Washington Center
Thu 08:03:51 PM 39.1292 -74.7675 30° Northeast 506 582 27,900 -2,672 Descending Washington Center
Thu 08:04:48 PM 39.2347 -74.6539 40° Northeast 506 582 25,800 -2,224 Descending Washington Center
Thu 08:07:16 PM 39.4831 -74.3778 41° Northeast 463 533 20,300 -1,962 Descending New York Center
Thu 08:08:16 PM 39.5758 -74.2775 40° Northeast 435 501 19,000 -1,131 Descending New York Center
Thu 08:09:18 PM 39.6661 -74.1794 40° Northeast 416 479 18,000 -1,613 Descending New York Center
Thu 08:10:15 PM 39.7439 -74.0917 41° Northeast 416 479 15,800 -1,932 Descending New York Center
Thu 08:11:16 PM 39.8275 -74.0036 39° Northeast 409 471 14,200 -1,488 Descending New York Center
Thu 08:12:16 PM 39.9275 -73.9272 30° Northeast 381 438 12,800 -694 Descending New York Center
Thu 08:13:17 PM 40.0081 -73.8767 26° Northeast 339 390 12,800 -645 Level New York Center
Thu 08:14:17 PM 40.0811 -73.8717 North 278 320 11,500 -923 Descending New York Center
Thu 08:15:14 PM 40.1500 -73.8719 360° North 272 313 11,000 -309 Descending New York Center
Thu 08:15:54 PM 40.2000 -73.8667 North 273 314 11,000 -600 Level New York TRACON
Thu 08:16:54 PM 40.2667 -73.8167 30° Northeast 278 320 10,000 -1,263 Descending New York TRACON
Thu 08:17:48 PM 40.2667 -73.7333 90° East 262 302 8,600 -1,526 Descending New York TRACON
Thu 08:18:48 PM 40.2833 -73.6333 78° East 270 311 7,100 -1,091 Descending New York TRACON
Thu 08:19:16 PM 40.3189 -73.6211 15° North 243 280 7,000 -68 Descending New York Center
Thu 08:20:16 PM 40.3806 -73.5747 30° Northeast 248 285 7,000  Level New York Center
Thu 08:20:54 PM 40.4333 -73.5667 North 265 305 7,000  Level New York TRACON
Thu 08:21:54 PM 40.5000 -73.5667 360° North 257 296 7,000 -50 Level New York TRACON
Thu 08:22:54 PM 40.5500 -73.5333 27° Northeast 266 306 6,900 -842 Descending New York TRACON
Thu 08:23:48 PM 40.5833 -73.4500 62° Northeast 266 306 5,400 -1,096 Descending New York TRACON
Thu 08:24:49 PM 40.6333 -73.4000 37° Northeast 264 304 4,800 -700 Descending New York TRACON
Thu 08:25:48 PM 40.7000 -73.3667 21° North 267 307 4,000 -908 Descending New York TRACON
Thu 08:26:48 PM 40.7833 -73.3500 North 257 296 3,000 -496 Descending New York TRACON
Thu 08:27:49 PM 40.8333 -73.3833 333° Northwest 254 292 3,000  Level New York TRACON
Thu 08:28:49 PM 40.8833 -73.4500 315° West 222 255 3,000 -303 Level New York TRACON
Thu 08:29:48 PM 40.9000 -73.5000 294° West 176 203 2,400 -504 Descending New York TRACON
Thu 08:30:48 PM 40.8833 -73.5500 246° West 157 181 2,000 -198 Descending New York TRACON
Thu 08:31:49 PM 40.8500 -73.5833 217° Southwest 151 174 2,000  Level New York TRACON
Thu 08:32:48 PM 40.8167 -73.6167 217° Southwest 152 175 2,000  Level New York TRACON
Thu 08:33:48 PM 40.7833 -73.6500 217° Southwest 157 181 2,000  Level New York TRACON
Thu 08:34:48 PM 40.7500 -73.6833 217° Southwest 155 178 2,000  Level New York TRACON

Login

Don't have an account? Register now (free) for customized features, flight alerts, and more!